sim
Sign-in with your pilot id or email,
or register
Callsign
Passwort

Schedule Details

Flight Number: DLH1959 (1)
Departure: Ancona Airport (LIPY) at 15:30
Arrival: Munich Airport (EDDM) at 16:45
Route: Lufthansa Passenger Schedule. Enter filed route here before submitting Pirep.

Weather Information
Getting current METAR information for LIPY 231520Z AUTO 19005KT 9999 BKN100/// 23/17 Q1010
Getting current METAR information for EDDM 231520Z 25007KT 220V280 9999 FEW045 20/14 Q1009 NOSIG

Schedule Frequency

Route Map